sensor_id;sensor_type;location;lat;lon;timestamp;pressure;altitude;pressure_sealevel;temperature;humidity
64460;BME280;50828;53.756;21.140;2023-07-31T00:01:49;99128.30;;;16.06;72.81
64460;BME280;50828;53.756;21.140;2023-07-31T00:06:57;99128.50;;;16.03;72.90
64460;BME280;50828;53.756;21.140;2023-07-31T00:12:06;99128.94;;;16.02;73.10
64460;BME280;50828;53.756;21.140;2023-07-31T00:17:14;99128.50;;;16.01;73.08
64460;BME280;50828;53.756;21.140;2023-07-31T00:22:21;99123.80;;;16.00;73.15
64460;BME280;50828;53.756;21.140;2023-07-31T00:27:29;99113.27;;;15.98;73.24
64460;BME280;50828;53.756;21.140;2023-07-31T00:32:36;99105.88;;;15.95;73.08
64460;BME280;50828;53.756;21.140;2023-07-31T00:37:44;99105.46;;;15.93;72.85
64460;BME280;50828;53.756;21.140;2023-07-31T00:42:52;99108.30;;;15.91;72.90
64460;BME280;50828;53.756;21.140;2023-07-31T00:47:59;99104.49;;;15.88;72.70
64460;BME280;50828;53.756;21.140;2023-07-31T00:53:08;99098.75;;;15.84;72.86
64460;BME280;50828;53.756;21.140;2023-07-31T00:58:15;99094.83;;;15.80;72.73
64460;BME280;50828;53.756;21.140;2023-07-31T01:03:23;99082.45;;;15.67;73.11
64460;BME280;50828;53.756;21.140;2023-07-31T01:08:37;99096.22;;;15.73;73.19
64460;BME280;50828;53.756;21.140;2023-07-31T01:13:50;99092.63;;;15.69;73.42
64460;BME280;50828;53.756;21.140;2023-07-31T01:18:57;99090.54;;;15.68;73.40
64460;BME280;50828;53.756;21.140;2023-07-31T01:24:22;99094.76;;;15.66;73.45
64460;BME280;50828;53.756;21.140;2023-07-31T01:29:36;99097.11;;;15.66;73.72
64460;BME280;50828;53.756;21.140;2023-07-31T01:34:45;99089.70;;;15.63;73.53
64460;BME280;50828;53.756;21.140;2023-07-31T01:39:53;99088.31;;;15.63;73.44
64460;BME280;50828;53.756;21.140;2023-07-31T01:45:01;99086.00;;;15.63;73.61
64460;BME280;50828;53.756;21.140;2023-07-31T01:50:10;99088.11;;;15.60;73.46
64460;BME280;50828;53.756;21.140;2023-07-31T01:55:18;99090.24;;;15.58;73.39
64460;BME280;50828;53.756;21.140;2023-07-31T02:00:26;99091.98;;;15.54;73.22
64460;BME280;50828;53.756;21.140;2023-07-31T02:05:33;99094.13;;;15.49;73.36
64460;BME280;50828;53.756;21.140;2023-07-31T02:10:41;99106.95;;;15.46;73.07
64460;BME280;50828;53.756;21.140;2023-07-31T02:15:48;99107.88;;;15.41;72.72
64460;BME280;50828;53.756;21.140;2023-07-31T02:20:56;99100.25;;;15.34;72.61
64460;BME280;50828;53.756;21.140;2023-07-31T02:26:04;99098.66;;;15.29;72.46
64460;BME280;50828;53.756;21.140;2023-07-31T02:31:11;99098.04;;;15.21;72.34
64460;BME280;50828;53.756;21.140;2023-07-31T02:36:18;99099.33;;;15.16;71.96
64460;BME280;50828;53.756;21.140;2023-07-31T02:41:26;99099.35;;;15.08;71.97
64460;BME280;50828;53.756;21.140;2023-07-31T02:46:33;99095.48;;;15.01;71.84
64460;BME280;50828;53.756;21.140;2023-07-31T02:51:41;99098.36;;;14.93;72.02
64460;BME280;50828;53.756;21.140;2023-07-31T02:56:49;99110.88;;;14.86;72.19
64460;BME280;50828;53.756;21.140;2023-07-31T03:01:57;99117.57;;;14.80;72.42
64460;BME280;50828;53.756;21.140;2023-07-31T03:07:05;99129.01;;;14.76;72.48
64460;BME280;50828;53.756;21.140;2023-07-31T03:12:12;99130.23;;;14.72;73.09
64460;BME280;50828;53.756;21.140;2023-07-31T03:17:20;99136.91;;;14.72;73.47
64460;BME280;50828;53.756;21.140;2023-07-31T03:22:27;99141.67;;;14.75;73.60
64460;BME280;50828;53.756;21.140;2023-07-31T03:27:34;99145.27;;;14.81;73.93
64460;BME280;50828;53.756;21.140;2023-07-31T03:32:42;99153.06;;;14.92;74.06
64460;BME280;50828;53.756;21.140;2023-07-31T03:37:50;99153.72;;;15.04;74.15
64460;BME280;50828;53.756;21.140;2023-07-31T03:42:58;99145.61;;;15.15;74.36
64460;BME280;50828;53.756;21.140;2023-07-31T03:48:06;99152.96;;;15.29;74.53
64460;BME280;50828;53.756;21.140;2023-07-31T03:53:14;99143.48;;;15.37;74.93
64460;BME280;50828;53.756;21.140;2023-07-31T03:58:22;99148.60;;;15.47;74.58
64460;BME280;50828;53.756;21.140;2023-07-31T04:03:30;99143.39;;;15.54;74.65
64460;BME280;50828;53.756;21.140;2023-07-31T04:08:37;99144.28;;;15.62;74.91
64460;BME280;50828;53.756;21.140;2023-07-31T04:13:45;99132.20;;;15.69;74.65
64460;BME280;50828;53.756;21.140;2023-07-31T04:18:53;99137.02;;;15.78;74.90
64460;BME280;50828;53.756;21.140;2023-07-31T04:24:00;99138.36;;;15.86;74.65
64460;BME280;50828;53.756;21.140;2023-07-31T04:29:08;99140.84;;;15.95;74.93
64460;BME280;50828;53.756;21.140;2023-07-31T04:34:15;99131.60;;;16.05;74.69
64460;BME280;50828;53.756;21.140;2023-07-31T04:39:23;99129.55;;;16.15;75.11
64460;BME280;50828;53.756;21.140;2023-07-31T04:44:30;99140.53;;;16.29;74.91
64460;BME280;50828;53.756;21.140;2023-07-31T04:49:38;99149.25;;;16.40;75.32
64460;BME280;50828;53.756;21.140;2023-07-31T04:54:46;99155.41;;;16.52;75.01
64460;BME280;50828;53.756;21.140;2023-07-31T04:59:55;99169.92;;;16.59;75.20
64460;BME280;50828;53.756;21.140;2023-07-31T05:05:03;99166.14;;;16.62;75.14
64460;BME280;50828;53.756;21.140;2023-07-31T05:10:11;99165.52;;;16.72;75.27
64460;BME280;50828;53.756;21.140;2023-07-31T05:15:19;99157.89;;;16.81;75.07
64460;BME280;50828;53.756;21.140;2023-07-31T05:20:28;99156.16;;;16.89;75.39
64460;BME280;50828;53.756;21.140;2023-07-31T05:25:37;99162.58;;;16.97;75.14
64460;BME280;50828;53.756;21.140;2023-07-31T05:30:46;99168.89;;;17.14;75.15
64460;BME280;50828;53.756;21.140;2023-07-31T05:35:54;99180.31;;;17.24;75.15
64460;BME280;50828;53.756;21.140;2023-07-31T05:41:02;99179.45;;;17.30;74.44
64460;BME280;50828;53.756;21.140;2023-07-31T05:46:11;99178.95;;;17.32;74.27
64460;BME280;50828;53.756;21.140;2023-07-31T05:51:19;99185.59;;;17.34;74.16
64460;BME280;50828;53.756;21.140;2023-07-31T05:56:27;99182.73;;;17.30;74.15
64460;BME280;50828;53.756;21.140;2023-07-31T06:01:35;99194.35;;;17.29;74.02
64460;BME280;50828;53.756;21.140;2023-07-31T06:06:43;99200.79;;;17.26;73.84
64460;BME280;50828;53.756;21.140;2023-07-31T06:11:51;99200.50;;;17.23;73.75
64460;BME280;50828;53.756;21.140;2023-07-31T06:16:58;99204.37;;;17.22;73.92
64460;BME280;50828;53.756;21.140;2023-07-31T06:22:07;99211.98;;;17.24;73.77
64460;BME280;50828;53.756;21.140;2023-07-31T06:27:15;99213.20;;;17.27;73.86
64460;BME280;50828;53.756;21.140;2023-07-31T06:32:24;99208.95;;;17.27;73.82
64460;BME280;50828;53.756;21.140;2023-07-31T06:37:33;99212.70;;;17.24;73.72
64460;BME280;50828;53.756;21.140;2023-07-31T06:42:42;99214.34;;;17.21;73.26
64460;BME280;50828;53.756;21.140;2023-07-31T06:47:50;99220.88;;;17.20;73.29
64460;BME280;50828;53.756;21.140;2023-07-31T06:52:58;99235.89;;;17.28;73.30
64460;BME280;50828;53.756;21.140;2023-07-31T06:58:06;99240.69;;;17.30;73.08
64460;BME280;50828;53.756;21.140;2023-07-31T07:03:14;99237.25;;;17.29;72.87
64460;BME280;50828;53.756;21.140;2023-07-31T07:08:23;99231.91;;;17.26;72.95
64460;BME280;50828;53.756;21.140;2023-07-31T07:13:32;99243.63;;;17.42;72.96
64460;BME280;50828;53.756;21.140;2023-07-31T07:18:42;99241.64;;;17.51;72.65
64460;BME280;50828;53.756;21.140;2023-07-31T07:24:08;99240.17;;;17.60;72.53
64460;BME280;50828;53.756;21.140;2023-07-31T07:29:16;99239.39;;;17.68;72.14
64460;BME280;50828;53.756;21.140;2023-07-31T07:34:25;99242.15;;;17.75;72.05
64460;BME280;50828;53.756;21.140;2023-07-31T07:39:33;99238.73;;;17.80;71.74
64460;BME280;50828;53.756;21.140;2023-07-31T07:44:41;99237.80;;;17.87;71.71
64460;BME280;50828;53.756;21.140;2023-07-31T07:49:49;99234.88;;;17.94;71.18
64460;BME280;50828;53.756;21.140;2023-07-31T07:54:58;99236.01;;;18.02;70.76
64460;BME280;50828;53.756;21.140;2023-07-31T08:00:08;99239.70;;;18.09;70.59
64460;BME280;50828;53.756;21.140;2023-07-31T08:05:21;99242.75;;;18.14;70.44
64460;BME280;50828;53.756;21.140;2023-07-31T08:10:28;99241.86;;;18.17;70.14
64460;BME280;50828;53.756;21.140;2023-07-31T08:15:37;99243.37;;;18.22;69.31
64460;BME280;50828;53.756;21.140;2023-07-31T08:20:45;99237.46;;;18.29;69.51
64460;BME280;50828;53.756;21.140;2023-07-31T08:25:53;99240.14;;;18.45;69.42
64460;BME280;50828;53.756;21.140;2023-07-31T08:31:01;99241.61;;;18.59;68.72
64460;BME280;50828;53.756;21.140;2023-07-31T08:36:09;99246.02;;;18.72;68.07
64460;BME280;50828;53.756;21.140;2023-07-31T08:41:17;99246.38;;;18.84;67.92
64460;BME280;50828;53.756;21.140;2023-07-31T08:46:26;99252.38;;;18.95;67.35
64460;BME280;50828;53.756;21.140;2023-07-31T08:51:35;99256.30;;;19.03;65.90
64460;BME280;50828;53.756;21.140;2023-07-31T08:56:43;99251.77;;;19.08;65.34
64460;BME280;50828;53.756;21.140;2023-07-31T09:01:54;99244.84;;;19.18;65.36
64460;BME280;50828;53.756;21.140;2023-07-31T09:07:04;99245.70;;;19.30;64.92
64460;BME280;50828;53.756;21.140;2023-07-31T09:12:13;99242.64;;;19.38;64.39
64460;BME280;50828;53.756;21.140;2023-07-31T09:17:32;99236.45;;;19.47;64.16
64460;BME280;50828;53.756;21.140;2023-07-31T09:22:41;99233.85;;;19.62;64.02
64460;BME280;50828;53.756;21.140;2023-07-31T09:27:50;99232.89;;;19.77;63.27
64460;BME280;50828;53.756;21.140;2023-07-31T09:33:05;99231.59;;;19.87;62.29
64460;BME280;50828;53.756;21.140;2023-07-31T09:38:14;99237.83;;;20.01;61.51
64460;BME280;50828;53.756;21.140;2023-07-31T09:43:23;99234.79;;;20.10;60.94
64460;BME280;50828;53.756;21.140;2023-07-31T09:48:31;99230.70;;;20.16;60.29
64460;BME280;50828;53.756;21.140;2023-07-31T09:53:40;99234.90;;;20.26;59.61
64460;BME280;50828;53.756;21.140;2023-07-31T09:58:48;99232.16;;;20.34;59.14
64460;BME280;50828;53.756;21.140;2023-07-31T10:03:56;99227.68;;;20.42;58.19
64460;BME280;50828;53.756;21.140;2023-07-31T10:09:07;99226.81;;;20.55;57.91
64460;BME280;50828;53.756;21.140;2023-07-31T10:14:16;99231.03;;;20.67;57.06
64460;BME280;50828;53.756;21.140;2023-07-31T10:19:28;99225.86;;;20.75;56.45
64460;BME280;50828;53.756;21.140;2023-07-31T10:24:38;99228.57;;;20.85;56.07
64460;BME280;50828;53.756;21.140;2023-07-31T10:29:48;99231.34;;;20.92;55.64
64460;BME280;50828;53.756;21.140;2023-07-31T10:34:59;99221.10;;;20.98;54.81
64460;BME280;50828;53.756;21.140;2023-07-31T10:40:09;99219.11;;;21.05;54.69
64460;BME280;50828;53.756;21.140;2023-07-31T10:45:32;99215.23;;;21.18;54.50
64460;BME280;50828;53.756;21.140;2023-07-31T10:50:49;99217.08;;;21.33;54.50
64460;BME280;50828;53.756;21.140;2023-07-31T10:56:00;99213.27;;;21.47;54.78
64460;BME280;50828;53.756;21.140;2023-07-31T11:01:08;99207.57;;;21.59;53.80
64460;BME280;50828;53.756;21.140;2023-07-31T11:06:17;99199.52;;;21.70;53.41
64460;BME280;50828;53.756;21.140;2023-07-31T11:11:26;99200.36;;;21.84;52.47
64460;BME280;50828;53.756;21.140;2023-07-31T11:16:33;99198.11;;;21.92;51.73
64460;BME280;50828;53.756;21.140;2023-07-31T11:21:41;99191.90;;;21.99;51.40
64460;BME280;50828;53.756;21.140;2023-07-31T11:26:53;99188.19;;;22.02;50.70
64460;BME280;50828;53.756;21.140;2023-07-31T11:32:01;99183.59;;;22.03;50.96
64460;BME280;50828;53.756;21.140;2023-07-31T11:37:10;99179.11;;;22.12;51.71
64460;BME280;50828;53.756;21.140;2023-07-31T11:42:19;99176.65;;;22.24;51.13
64460;BME280;50828;53.756;21.140;2023-07-31T11:47:29;99173.05;;;22.31;49.98
64460;BME280;50828;53.756;21.140;2023-07-31T11:52:40;99169.54;;;22.39;49.46
64460;BME280;50828;53.756;21.140;2023-07-31T11:57:50;99174.61;;;22.52;49.40
64460;BME280;50828;53.756;21.140;2023-07-31T12:02:58;99171.41;;;22.60;48.38
64460;BME280;50828;53.756;21.140;2023-07-31T12:08:10;99168.81;;;22.68;48.38
64460;BME280;50828;53.756;21.140;2023-07-31T12:13:24;99162.48;;;22.73;47.89
64460;BME280;50828;53.756;21.140;2023-07-31T12:18:35;99165.59;;;22.80;47.46
64460;BME280;50828;53.756;21.140;2023-07-31T12:23:45;99159.88;;;22.83;47.15
64460;BME280;50828;53.756;21.140;2023-07-31T12:28:56;99159.63;;;22.87;47.60
64460;BME280;50828;53.756;21.140;2023-07-31T12:34:14;99152.30;;;22.93;47.03
64460;BME280;50828;53.756;21.140;2023-07-31T12:39:23;99143.02;;;23.01;47.05
64460;BME280;50828;53.756;21.140;2023-07-31T12:44:31;99133.09;;;23.07;47.05
64460;BME280;50828;53.756;21.140;2023-07-31T12:49:39;99130.63;;;23.12;46.69
64460;BME280;50828;53.756;21.140;2023-07-31T12:54:47;99130.36;;;23.14;46.79
64460;BME280;50828;53.756;21.140;2023-07-31T12:59:55;99132.25;;;23.20;46.48
64460;BME280;50828;53.756;21.140;2023-07-31T13:05:04;99122.59;;;23.24;46.15
64460;BME280;50828;53.756;21.140;2023-07-31T13:10:12;99123.38;;;23.31;45.85
64460;BME280;50828;53.756;21.140;2023-07-31T13:15:21;99113.87;;;23.32;44.90
64460;BME280;50828;53.756;21.140;2023-07-31T13:20:28;99108.75;;;23.31;44.66
64460;BME280;50828;53.756;21.140;2023-07-31T13:25:36;99106.42;;;23.33;45.13
64460;BME280;50828;53.756;21.140;2023-07-31T13:30:45;99102.41;;;23.37;44.99
64460;BME280;50828;53.756;21.140;2023-07-31T13:35:52;99097.50;;;23.40;45.12
64460;BME280;50828;53.756;21.140;2023-07-31T13:41:00;99093.95;;;23.50;44.72
64460;BME280;50828;53.756;21.140;2023-07-31T13:46:09;99094.18;;;23.54;43.67
64460;BME280;50828;53.756;21.140;2023-07-31T13:51:20;99087.75;;;23.54;43.48
64460;BME280;50828;53.756;21.140;2023-07-31T13:56:28;99092.54;;;23.53;43.17
64460;BME280;50828;53.756;21.140;2023-07-31T14:01:36;99087.25;;;23.50;43.04
64460;BME280;50828;53.756;21.140;2023-07-31T14:06:45;99085.02;;;23.48;43.20
64460;BME280;50828;53.756;21.140;2023-07-31T14:11:54;99091.05;;;23.45;43.47
64460;BME280;50828;53.756;21.140;2023-07-31T14:17:02;99093.09;;;23.41;43.10
64460;BME280;50828;53.756;21.140;2023-07-31T14:22:10;99096.65;;;23.35;42.99
64460;BME280;50828;53.756;21.140;2023-07-31T14:27:19;99100.54;;;23.29;43.26
64460;BME280;50828;53.756;21.140;2023-07-31T14:32:27;99103.99;;;23.22;43.61
64460;BME280;50828;53.756;21.140;2023-07-31T14:37:41;99106.51;;;23.10;43.56
64460;BME280;50828;53.756;21.140;2023-07-31T14:42:50;99122.05;;;22.97;42.98
64460;BME280;50828;53.756;21.140;2023-07-31T14:47:59;99117.02;;;22.77;43.77
64460;BME280;50828;53.756;21.140;2023-07-31T14:53:07;99124.23;;;22.65;44.33
64460;BME280;50828;53.756;21.140;2023-07-31T14:58:16;99118.02;;;22.51;44.87
64460;BME280;50828;53.756;21.140;2023-07-31T15:03:23;99114.77;;;22.40;45.15
64460;BME280;50828;53.756;21.140;2023-07-31T15:08:33;99112.16;;;22.26;45.45
64460;BME280;50828;53.756;21.140;2023-07-31T15:13:42;99113.53;;;22.18;45.73
64460;BME280;50828;53.756;21.140;2023-07-31T15:18:51;99113.17;;;22.08;46.03
64460;BME280;50828;53.756;21.140;2023-07-31T15:23:59;99111.18;;;21.96;46.31
64460;BME280;50828;53.756;21.140;2023-07-31T15:29:09;99117.61;;;21.89;46.68
64460;BME280;50828;53.756;21.140;2023-07-31T15:34:21;99115.41;;;21.83;47.07
64460;BME280;50828;53.756;21.140;2023-07-31T15:39:30;99118.54;;;21.78;47.26
64460;BME280;50828;53.756;21.140;2023-07-31T15:44:38;99123.04;;;21.73;47.33
64460;BME280;50828;53.756;21.140;2023-07-31T15:49:47;99126.20;;;21.65;47.38
64460;BME280;50828;53.756;21.140;2023-07-31T15:54:57;99122.48;;;21.57;47.40
64460;BME280;50828;53.756;21.140;2023-07-31T16:00:08;99125.70;;;21.49;47.63
64460;BME280;50828;53.756;21.140;2023-07-31T16:05:16;99125.95;;;21.37;47.77
64460;BME280;50828;53.756;21.140;2023-07-31T16:10:26;99121.55;;;21.29;48.24
64460;BME280;50828;53.756;21.140;2023-07-31T16:15:34;99114.77;;;21.20;48.30
64460;BME280;50828;53.756;21.140;2023-07-31T16:20:43;99108.77;;;21.10;48.62
64460;BME280;50828;53.756;21.140;2023-07-31T16:25:52;99117.05;;;21.06;48.89
64460;BME280;50828;53.756;21.140;2023-07-31T16:31:01;99107.03;;;20.99;49.06
64460;BME280;50828;53.756;21.140;2023-07-31T16:36:09;99106.36;;;20.95;49.28
64460;BME280;50828;53.756;21.140;2023-07-31T16:41:18;99105.52;;;20.90;49.50
64460;BME280;50828;53.756;21.140;2023-07-31T16:46:26;99098.68;;;20.84;49.73
64460;BME280;50828;53.756;21.140;2023-07-31T16:51:37;99097.43;;;20.82;49.91
64460;BME280;50828;53.756;21.140;2023-07-31T16:56:47;99098.67;;;20.78;50.19
64460;BME280;50828;53.756;21.140;2023-07-31T17:02:08;99093.36;;;20.76;50.26
64460;BME280;50828;53.756;21.140;2023-07-31T17:07:18;99090.14;;;20.75;50.16
64460;BME280;50828;53.756;21.140;2023-07-31T17:12:28;99094.11;;;20.72;50.20
64460;BME280;50828;53.756;21.140;2023-07-31T17:17:36;99090.73;;;20.71;50.30
64460;BME280;50828;53.756;21.140;2023-07-31T17:22:46;99092.84;;;20.70;50.41
64460;BME280;50828;53.756;21.140;2023-07-31T17:27:54;99095.87;;;20.67;50.67
64460;BME280;50828;53.756;21.140;2023-07-31T17:33:04;99099.32;;;20.66;50.59
64460;BME280;50828;53.756;21.140;2023-07-31T17:38:14;99100.05;;;20.64;50.56
64460;BME280;50828;53.756;21.140;2023-07-31T17:43:22;99101.67;;;20.62;50.65
64460;BME280;50828;53.756;21.140;2023-07-31T17:48:31;99099.84;;;20.59;50.66
64460;BME280;50828;53.756;21.140;2023-07-31T17:53:39;99104.42;;;20.58;50.86
64460;BME280;50828;53.756;21.140;2023-07-31T17:58:47;99102.59;;;20.56;50.98
64460;BME280;50828;53.756;21.140;2023-07-31T18:03:55;99102.30;;;20.55;51.04
64460;BME280;50828;53.756;21.140;2023-07-31T18:09:04;99100.73;;;20.53;51.28
64460;BME280;50828;53.756;21.140;2023-07-31T18:14:13;99100.98;;;20.51;51.34
64460;BME280;50828;53.756;21.140;2023-07-31T18:19:22;99101.42;;;20.48;51.59
64460;BME280;50828;53.756;21.140;2023-07-31T18:24:31;99102.29;;;20.45;51.80
64460;BME280;50828;53.756;21.140;2023-07-31T18:29:40;99098.39;;;20.41;52.05
64460;BME280;50828;53.756;21.140;2023-07-31T18:34:48;99091.47;;;20.37;52.37
64460;BME280;50828;53.756;21.140;2023-07-31T18:39:57;99092.88;;;20.36;52.43
64460;BME280;50828;53.756;21.140;2023-07-31T18:45:09;99090.80;;;20.34;52.66
64460;BME280;50828;53.756;21.140;2023-07-31T18:50:17;99081.27;;;20.31;52.86
64460;BME280;50828;53.756;21.140;2023-07-31T18:55:26;99076.66;;;20.27;53.04
64460;BME280;50828;53.756;21.140;2023-07-31T19:00:35;99072.34;;;20.24;53.14
64460;BME280;50828;53.756;21.140;2023-07-31T19:05:44;99068.20;;;20.18;53.12
64460;BME280;50828;53.756;21.140;2023-07-31T19:10:52;99074.41;;;20.15;53.30
64460;BME280;50828;53.756;21.140;2023-07-31T19:16:00;99077.39;;;20.12;53.54
64460;BME280;50828;53.756;21.140;2023-07-31T19:21:09;99072.23;;;20.08;53.74
64460;BME280;50828;53.756;21.140;2023-07-31T19:26:19;99078.54;;;20.04;53.84
64460;BME280;50828;53.756;21.140;2023-07-31T19:31:28;99080.29;;;20.00;54.13
64460;BME280;50828;53.756;21.140;2023-07-31T19:36:38;99080.27;;;19.96;54.28
64460;BME280;50828;53.756;21.140;2023-07-31T19:41:47;99077.02;;;19.93;54.30
64460;BME280;50828;53.756;21.140;2023-07-31T19:46:56;99076.18;;;19.87;54.69
64460;BME280;50828;53.756;21.140;2023-07-31T19:52:06;99079.64;;;19.85;54.71
64460;BME280;50828;53.756;21.140;2023-07-31T19:57:15;99081.28;;;19.82;54.86
64460;BME280;50828;53.756;21.140;2023-07-31T20:02:23;99080.45;;;19.80;55.11
64460;BME280;50828;53.756;21.140;2023-07-31T20:07:32;99072.51;;;19.77;55.30
64460;BME280;50828;53.756;21.140;2023-07-31T20:12:41;99062.86;;;19.73;55.47
64460;BME280;50828;53.756;21.140;2023-07-31T20:17:53;99049.09;;;19.69;55.56
64460;BME280;50828;53.756;21.140;2023-07-31T20:23:00;99038.39;;;19.63;55.72
64460;BME280;50828;53.756;21.140;2023-07-31T20:28:11;99045.88;;;19.60;55.81
64460;BME280;50828;53.756;21.140;2023-07-31T20:33:20;99042.59;;;19.53;56.05
64460;BME280;50828;53.756;21.140;2023-07-31T20:38:28;99040.39;;;19.46;56.17
64460;BME280;50828;53.756;21.140;2023-07-31T20:43:35;99036.04;;;19.39;56.28
64460;BME280;50828;53.756;21.140;2023-07-31T20:48:44;99033.98;;;19.32;56.49
64460;BME280;50828;53.756;21.140;2023-07-31T20:53:53;99032.99;;;19.24;56.82
64460;BME280;50828;53.756;21.140;2023-07-31T20:59:02;99027.11;;;19.16;56.91
64460;BME280;50828;53.756;21.140;2023-07-31T21:04:10;99019.94;;;19.09;57.09
64460;BME280;50828;53.756;21.140;2023-07-31T21:09:19;99019.33;;;19.02;57.37
64460;BME280;50828;53.756;21.140;2023-07-31T21:14:27;99012.20;;;18.96;57.68
64460;BME280;50828;53.756;21.140;2023-07-31T21:19:36;99009.67;;;18.90;58.07
64460;BME280;50828;53.756;21.140;2023-07-31T21:24:45;99005.98;;;18.84;58.14
64460;BME280;50828;53.756;21.140;2023-07-31T21:29:53;99004.10;;;18.81;58.42
64460;BME280;50828;53.756;21.140;2023-07-31T21:35:01;99000.99;;;18.80;58.70
64460;BME280;50828;53.756;21.140;2023-07-31T21:40:11;98996.64;;;18.77;58.74
64460;BME280;50828;53.756;21.140;2023-07-31T21:45:19;98996.70;;;18.76;58.87
64460;BME280;50828;53.756;21.140;2023-07-31T21:50:28;98991.15;;;18.74;59.08
64460;BME280;50828;53.756;21.140;2023-07-31T21:55:36;98985.41;;;18.71;59.09
64460;BME280;50828;53.756;21.140;2023-07-31T22:00:44;98987.97;;;18.68;59.12
64460;BME280;50828;53.756;21.140;2023-07-31T22:05:53;98988.28;;;18.65;59.31
64460;BME280;50828;53.756;21.140;2023-07-31T22:11:01;98978.88;;;18.62;59.43
64460;BME280;50828;53.756;21.140;2023-07-31T22:16:10;98967.83;;;18.61;59.50
64460;BME280;50828;53.756;21.140;2023-07-31T22:21:19;98963.65;;;18.59;59.61
64460;BME280;50828;53.756;21.140;2023-07-31T22:26:28;98962.39;;;18.58;59.70
64460;BME280;50828;53.756;21.140;2023-07-31T22:31:37;98958.33;;;18.55;59.66
64460;BME280;50828;53.756;21.140;2023-07-31T22:36:46;98952.38;;;18.56;59.77
64460;BME280;50828;53.756;21.140;2023-07-31T22:41:54;98951.23;;;18.55;59.80
64460;BME280;50828;53.756;21.140;2023-07-31T22:47:03;98947.73;;;18.54;59.90
64460;BME280;50828;53.756;21.140;2023-07-31T22:52:12;98945.77;;;18.54;59.87
64460;BME280;50828;53.756;21.140;2023-07-31T22:57:20;98938.57;;;18.53;59.93
64460;BME280;50828;53.756;21.140;2023-07-31T23:02:29;98939.08;;;18.53;59.98
64460;BME280;50828;53.756;21.140;2023-07-31T23:07:37;98927.85;;;18.55;59.94
64460;BME280;50828;53.756;21.140;2023-07-31T23:12:46;98922.27;;;18.56;59.98
64460;BME280;50828;53.756;21.140;2023-07-31T23:17:53;98909.45;;;18.56;59.93
64460;BME280;50828;53.756;21.140;2023-07-31T23:23:01;98907.79;;;18.54;60.08
64460;BME280;50828;53.756;21.140;2023-07-31T23:28:09;98909.96;;;18.56;60.09
64460;BME280;50828;53.756;21.140;2023-07-31T23:33:17;98908.48;;;18.54;59.94
64460;BME280;50828;53.756;21.140;2023-07-31T23:38:26;98906.38;;;18.53;60.09
64460;BME280;50828;53.756;21.140;2023-07-31T23:43:35;98907.15;;;18.53;60.09
64460;BME280;50828;53.756;21.140;2023-07-31T23:48:43;98905.54;;;18.53;60.21
64460;BME280;50828;53.756;21.140;2023-07-31T23:53:51;98901.73;;;18.52;60.17
64460;BME280;50828;53.756;21.140;2023-07-31T23:59:00;98890.64;;;18.52;60.18
